createdAt,value
2023-02-03T00:00:01.327Z,99458.06
2023-02-03T00:02:28.792Z,99463.84
2023-02-03T00:04:56.128Z,99470.63
2023-02-03T00:07:23.641Z,99479.56
2023-02-03T00:09:51.244Z,99482.88
2023-02-03T00:12:18.702Z,99485.50
2023-02-03T00:14:45.991Z,99485.28
2023-02-03T00:17:15.163Z,99491.09
2023-02-03T00:19:42.576Z,99493.53
2023-02-03T00:22:10.085Z,99496.50
2023-02-03T00:24:37.647Z,99509.66
2023-02-03T00:27:05.055Z,99497.25
2023-02-03T00:29:32.589Z,99497.78
2023-02-03T00:32:00.045Z,99492.53
2023-02-03T00:34:31.411Z,99490.97
2023-02-03T00:36:59.201Z,99496.13
2023-02-03T00:39:26.610Z,99496.03
2023-02-03T00:41:53.981Z,99500.66
2023-02-03T00:44:21.489Z,99500.16
2023-02-03T00:46:49.040Z,99507.38
2023-02-03T00:49:16.535Z,99500.66
2023-02-03T00:51:43.872Z,99510.34
2023-02-03T00:54:11.293Z,99514.50
2023-02-03T00:56:38.678Z,99516.25
2023-02-03T00:59:07.010Z,99518.41
2023-02-03T01:01:36.257Z,99516.03
2023-02-03T01:04:04.435Z,99512.63
2023-02-03T01:06:34.314Z,99505.31
2023-02-03T01:09:03.709Z,99507.16
2023-02-03T01:11:32.909Z,99508.06
2023-02-03T01:14:01.775Z,99511.56
2023-02-03T01:16:31.718Z,99508.53
2023-02-03T01:18:59.108Z,99515.59
2023-02-03T01:21:28.747Z,99526.41
2023-02-03T01:23:56.478Z,99530.50
2023-02-03T01:26:24.434Z,99523.91
2023-02-03T01:29:00.368Z,99533.78
2023-02-03T01:31:37.027Z,99527.22
2023-02-03T01:34:12.941Z,99528.03
2023-02-03T01:36:40.655Z,99519.50
2023-02-03T01:39:08.461Z,99522.59
2023-02-03T01:41:39.478Z,99527.22
2023-02-03T01:44:45.969Z,99533.78
2023-02-03T01:47:35.045Z,99527.53
2023-02-03T01:50:30.312Z,99531.88
2023-02-03T01:53:04.551Z,99531.38
2023-02-03T01:55:38.394Z,99543.50
2023-02-03T01:58:13.751Z,99545.66
2023-02-03T02:00:42.297Z,99548.34
2023-02-03T02:03:10.819Z,99545.13
2023-02-03T02:05:46.985Z,99547.41
2023-02-03T02:08:18.147Z,99550.00
2023-02-03T02:10:46.043Z,99556.13
2023-02-03T02:13:15.524Z,99561.94
2023-02-03T02:16:17.979Z,99563.38
2023-02-03T02:19:03.116Z,99562.06
2023-02-03T02:22:02.795Z,99563.53
2023-02-03T02:24:53.473Z,99565.84
2023-02-03T02:27:54.479Z,99570.03
2023-02-03T02:30:51.015Z,99577.66
2023-02-03T02:33:44.581Z,99566.03
2023-02-03T02:36:46.915Z,99570.16
2023-02-03T02:39:51.438Z,99570.59
2023-02-03T02:42:42.676Z,99570.94
2023-02-03T02:45:34.164Z,99573.50
2023-02-03T02:48:15.475Z,99571.94
2023-02-03T02:50:50.737Z,99574.84
2023-02-03T02:53:24.121Z,99578.13
2023-02-03T02:55:54.509Z,99576.59
2023-02-03T02:58:23.480Z,99573.41
2023-02-03T03:00:51.693Z,99586.81
2023-02-03T03:03:24.464Z,99579.38
2023-02-03T03:06:18.365Z,99589.69
2023-02-03T03:09:42.568Z,99577.94
2023-02-03T03:12:22.703Z,99580.31
2023-02-03T03:14:59.212Z,99592.50
2023-02-03T03:17:41.007Z,99580.50
2023-02-03T03:20:24.813Z,99589.16
2023-02-03T03:23:06.271Z,99589.56
2023-02-03T03:25:45.948Z,99598.88
2023-02-03T03:28:27.546Z,99594.44
2023-02-03T03:30:55.188Z,99594.44
2023-02-03T03:33:23.406Z,99593.50
2023-02-03T03:36:03.283Z,99595.75
2023-02-03T03:38:55.021Z,99600.09
2023-02-03T03:41:40.046Z,99597.53
2023-02-03T03:44:14.571Z,99587.84
2023-02-03T03:46:50.225Z,99588.53
2023-02-03T03:49:22.207Z,99588.44
2023-02-03T03:51:56.476Z,99597.03
2023-02-03T03:54:27.770Z,99596.69
2023-02-03T03:57:02.729Z,99591.75
2023-02-03T03:59:39.291Z,99592.75
2023-02-03T04:02:06.888Z,99595.97
2023-02-03T04:04:37.750Z,99595.25
2023-02-03T04:07:05.336Z,99595.25
2023-02-03T04:09:36.689Z,99594.22
2023-02-03T04:12:06.340Z,99580.50
2023-02-03T04:14:40.887Z,99586.06
2023-02-03T04:17:09.518Z,99582.78
2023-02-03T04:19:36.808Z,99589.38
2023-02-03T04:22:06.436Z,99597.75
2023-02-03T04:24:33.855Z,99586.38
2023-02-03T04:27:01.562Z,99594.22
2023-02-03T04:29:29.598Z,99593.22
2023-02-03T04:31:57.360Z,99604.13
2023-02-03T04:34:24.820Z,99603.13
2023-02-03T04:36:52.197Z,99593.50
2023-02-03T04:39:19.616Z,99594.22
2023-02-03T04:41:46.969Z,99596.91
2023-02-03T04:44:14.466Z,99592.47
2023-02-03T04:46:41.769Z,99585.97
2023-02-03T04:49:11.706Z,99581.00
2023-02-03T04:51:39.150Z,99584.28
2023-02-03T04:54:06.712Z,99586.13
2023-02-03T04:56:34.053Z,99588.38
2023-02-03T04:59:01.441Z,99572.69
2023-02-03T05:01:29.038Z,99587.94
2023-02-03T05:03:56.460Z,99588.63
2023-02-03T05:06:30.067Z,99588.09
2023-02-03T05:08:58.374Z,99597.03
2023-02-03T05:11:26.123Z,99601.66
2023-02-03T05:13:54.490Z,99612.06
2023-02-03T05:16:21.949Z,99611.41
2023-02-03T05:18:49.826Z,99612.63
2023-02-03T05:21:17.789Z,99612.72
2023-02-03T05:23:45.302Z,99610.53
2023-02-03T05:26:12.856Z,99622.03
2023-02-03T05:28:40.206Z,99621.41
2023-02-03T05:31:07.773Z,99618.94
2023-02-03T05:33:35.136Z,99631.13
2023-02-03T05:36:02.460Z,99631.81
2023-02-03T05:38:31.000Z,99635.50
2023-02-03T05:41:17.138Z,99624.84
2023-02-03T05:43:44.567Z,99628.59
2023-02-03T05:46:12.022Z,99624.72
2023-02-03T05:48:39.434Z,99629.97
2023-02-03T05:51:06.792Z,99625.88
2023-02-03T05:53:34.124Z,99629.25
2023-02-03T05:56:01.513Z,99626.47
2023-02-03T05:58:28.884Z,99630.19
2023-02-03T06:00:56.252Z,99624.72
2023-02-03T06:03:23.779Z,99630.63
2023-02-03T06:05:51.162Z,99637.03
2023-02-03T06:08:18.512Z,99638.03
2023-02-03T06:10:45.923Z,99647.56
2023-02-03T06:13:16.526Z,99645.56
2023-02-03T06:15:44.328Z,99647.44
2023-02-03T06:18:11.711Z,99642.88
2023-02-03T06:20:39.120Z,99646.53
2023-02-03T06:23:06.487Z,99652.41
2023-02-03T06:25:33.894Z,99657.66
2023-02-03T06:28:01.443Z,99657.72
2023-02-03T06:30:29.536Z,99663.81
2023-02-03T06:32:57.056Z,99667.00
2023-02-03T06:35:24.410Z,99666.13
2023-02-03T06:37:51.906Z,99645.94
2023-02-03T06:40:19.540Z,99654.56
2023-02-03T06:42:48.468Z,99668.19
2023-02-03T06:45:16.224Z,99663.34
2023-02-03T06:47:45.798Z,99650.28
2023-02-03T06:50:16.192Z,99651.09
2023-02-03T06:52:43.723Z,99643.44
2023-02-03T06:55:11.251Z,99633.53
2023-02-03T06:57:47.612Z,99640.44
2023-02-03T07:00:19.299Z,99663.28
2023-02-03T07:02:57.495Z,99664.59
2023-02-03T07:05:25.801Z,99668.72
2023-02-03T07:07:53.739Z,99673.09
2023-02-03T07:10:21.366Z,99671.50
2023-02-03T07:12:50.835Z,99678.63
2023-02-03T07:15:19.051Z,99675.28
2023-02-03T07:17:54.880Z,99672.25
2023-02-03T07:20:23.966Z,99675.75
2023-02-03T07:22:56.608Z,99683.94
2023-02-03T07:25:25.192Z,99673.22
2023-02-03T07:27:52.722Z,99679.72
2023-02-03T07:30:20.440Z,99680.75
2023-02-03T07:32:52.299Z,99681.53
2023-02-03T07:35:20.345Z,99682.34
2023-02-03T07:37:47.861Z,99677.03
2023-02-03T07:40:17.398Z,99678.25
2023-02-03T07:42:47.962Z,99687.75
2023-02-03T07:45:17.829Z,99691.34
2023-02-03T07:47:45.424Z,99684.06
2023-02-03T07:50:13.659Z,99689.63
2023-02-03T07:52:41.122Z,99680.38
2023-02-03T07:55:09.289Z,99684.75
2023-02-03T07:57:37.344Z,99673.78
2023-02-03T08:00:05.507Z,99652.13
2023-02-03T08:02:40.523Z,99664.97
2023-02-03T08:05:08.589Z,99654.63
2023-02-03T08:07:36.119Z,99656.44
2023-02-03T08:10:04.676Z,99657.72
2023-02-03T08:12:31.900Z,99643.34
2023-02-03T08:14:59.131Z,99649.47
2023-02-03T08:17:26.807Z,99641.19
2023-02-03T08:19:54.235Z,99636.56
2023-02-03T08:22:21.652Z,99642.19
2023-02-03T08:24:49.341Z,99653.09
2023-02-03T08:27:20.073Z,99645.91
2023-02-03T08:29:48.328Z,99642.06
2023-02-03T08:32:21.290Z,99639.59
2023-02-03T08:34:50.191Z,99631.47
2023-02-03T08:37:21.183Z,99648.47
2023-02-03T08:39:48.645Z,99639.81
2023-02-03T08:42:16.804Z,99648.84
2023-02-03T08:44:44.875Z,99645.44
2023-02-03T08:47:12.894Z,99650.13
2023-02-03T08:49:40.918Z,99653.84
2023-02-03T08:52:12.021Z,99660.13
2023-02-03T08:54:39.583Z,99658.47
2023-02-03T08:57:07.897Z,99645.41
2023-02-03T08:59:38.854Z,99659.25
2023-02-03T09:02:11.297Z,99643.44
2023-02-03T09:04:38.702Z,99645.84
2023-02-03T09:07:06.184Z,99657.09
2023-02-03T09:09:33.621Z,99644.91
2023-02-03T09:12:02.358Z,99653.91
2023-02-03T09:14:31.481Z,99651.13
2023-02-03T09:17:00.843Z,99653.94
2023-02-03T09:19:28.206Z,99650.84
2023-02-03T09:21:57.242Z,99650.97
2023-02-03T09:24:25.042Z,99641.84
2023-02-03T09:26:53.054Z,99633.25
2023-02-03T09:29:20.612Z,99642.00
2023-02-03T09:31:52.727Z,99633.28
2023-02-03T09:34:21.415Z,99645.19
2023-02-03T09:36:48.831Z,99648.38
2023-02-03T09:39:16.218Z,99641.13
2023-02-03T09:42:19.859Z,99625.66
2023-02-03T09:45:13.856Z,99628.94
2023-02-03T09:47:44.812Z,99623.06
2023-02-03T09:50:20.875Z,99628.88
2023-02-03T09:52:50.038Z,99627.53
2023-02-03T09:55:56.037Z,99633.25
2023-02-03T09:58:24.981Z,99624.44
2023-02-03T10:01:02.548Z,99623.44
2023-02-03T10:03:41.828Z,99615.69
2023-02-03T10:06:37.608Z,99599.84
2023-02-03T10:09:32.237Z,99604.47
2023-02-03T10:12:15.929Z,99600.22
2023-02-03T10:15:02.564Z,99600.94
2023-02-03T10:17:58.543Z,99592.25
2023-02-03T10:20:41.101Z,99584.53
2023-02-03T10:23:29.770Z,99580.72
2023-02-03T10:26:03.396Z,99573.38
2023-02-03T10:28:40.016Z,99572.81
2023-02-03T10:31:22.045Z,99559.81
2023-02-03T10:34:11.311Z,99549.66
2023-02-03T10:36:55.955Z,99557.06
2023-02-03T10:39:43.205Z,99559.78
2023-02-03T10:42:13.612Z,99552.06
2023-02-03T10:44:46.876Z,99550.75
2023-02-03T10:47:39.256Z,99544.75
2023-02-03T10:50:22.650Z,99547.06
2023-02-03T10:52:50.261Z,99548.63
2023-02-03T10:55:26.684Z,99544.34
2023-02-03T10:57:55.231Z,99536.19
2023-02-03T11:00:30.070Z,99518.72
2023-02-03T11:03:25.433Z,99526.78
2023-02-03T11:06:13.135Z,99516.78
2023-02-03T11:08:48.277Z,99503.06
2023-02-03T11:11:21.660Z,99484.84
2023-02-03T11:14:09.359Z,99476.75
2023-02-03T11:16:39.627Z,99483.53
2023-02-03T11:19:18.061Z,99484.56
2023-02-03T11:21:52.143Z,99467.78
2023-02-03T11:24:45.818Z,99463.50
2023-02-03T11:27:18.542Z,99475.41
2023-02-03T11:29:50.606Z,99461.44
2023-02-03T11:32:35.121Z,99464.34
2023-02-03T11:35:15.374Z,99464.38
2023-02-03T11:37:46.368Z,99449.75
2023-02-03T11:40:18.220Z,99431.72
2023-02-03T11:43:06.080Z,99439.16
2023-02-03T11:45:45.953Z,99447.03
2023-02-03T11:48:30.640Z,99444.06
2023-02-03T11:51:44.955Z,99439.94
2023-02-03T11:54:31.216Z,99424.91
2023-02-03T11:57:05.195Z,99410.09
2023-02-03T11:59:49.190Z,99400.84
2023-02-03T12:03:11.903Z,99398.75
2023-02-03T12:05:44.747Z,99397.63
2023-02-03T12:08:21.692Z,99393.53
2023-02-03T12:11:03.107Z,99378.44
2023-02-03T12:13:59.825Z,99378.19
2023-02-03T12:16:55.807Z,99357.94
2023-02-03T12:19:57.027Z,99349.00
2023-02-03T12:22:27.159Z,99339.59
2023-02-03T12:25:44.593Z,99341.28
2023-02-03T12:28:54.675Z,99344.06
2023-02-03T12:31:32.414Z,99328.34
2023-02-03T12:34:29.325Z,99316.78
2023-02-03T12:37:10.136Z,99306.97
2023-02-03T12:39:53.498Z,99295.88
2023-02-03T12:42:31.442Z,99287.81
2023-02-03T12:45:28.183Z,99281.63
2023-02-03T12:48:43.888Z,99276.41
2023-02-03T12:51:23.691Z,99270.19
2023-02-03T12:54:00.107Z,99266.56
2023-02-03T12:56:40.294Z,99268.94
2023-02-03T12:59:18.483Z,99258.38
2023-02-03T13:01:58.594Z,99258.56
2023-02-03T13:04:43.861Z,99261.19
2023-02-03T13:07:24.791Z,99251.94
2023-02-03T13:10:14.655Z,99251.88
2023-02-03T13:12:49.774Z,99238.53
2023-02-03T13:15:31.723Z,99237.94
2023-02-03T13:18:05.596Z,99231.34
2023-02-03T13:20:37.128Z,99226.59
2023-02-03T13:23:08.265Z,99228.91
2023-02-03T13:26:15.021Z,99232.72
2023-02-03T13:29:22.648Z,99228.47
2023-02-03T13:32:27.428Z,99225.53
2023-02-03T13:35:43.811Z,99219.16
2023-02-03T13:38:49.328Z,99199.81
2023-02-03T13:41:54.798Z,99192.06
2023-02-03T13:44:28.540Z,99185.03
2023-02-03T13:46:59.586Z,99187.13
2023-02-03T13:49:35.066Z,99175.88
2023-02-03T13:52:03.616Z,99171.63
2023-02-03T13:54:44.185Z,99167.34
2023-02-03T13:57:28.431Z,99166.22
2023-02-03T13:59:55.862Z,99168.50
2023-02-03T14:02:59.367Z,99165.44
2023-02-03T14:05:48.860Z,99151.59
2023-02-03T14:08:28.117Z,99150.94
2023-02-03T14:11:36.281Z,99134.94
2023-02-03T14:14:12.409Z,99124.38
2023-02-03T14:16:54.537Z,99121.53
2023-02-03T14:19:22.149Z,99121.91
2023-02-03T14:21:57.546Z,99110.53
2023-02-03T14:24:33.413Z,99105.00
2023-02-03T14:27:05.008Z,99102.25
2023-02-03T14:29:36.613Z,99093.41
2023-02-03T14:32:10.665Z,99085.44
2023-02-03T14:34:42.608Z,99079.69
2023-02-03T14:37:17.829Z,99076.44
2023-02-03T14:40:07.470Z,99065.94
2023-02-03T14:43:10.562Z,99056.50
2023-02-03T14:46:16.362Z,99062.31
2023-02-03T14:49:21.385Z,99050.47
2023-02-03T14:52:23.941Z,99035.38
2023-02-03T14:55:08.084Z,99027.72
2023-02-03T14:57:49.583Z,99044.94
2023-02-03T15:00:19.673Z,99024.25
2023-02-03T15:03:11.943Z,99010.19
2023-02-03T15:05:54.612Z,99020.31
2023-02-03T15:08:44.395Z,99028.22
2023-02-03T15:11:33.652Z,99025.16
2023-02-03T15:14:26.630Z,99026.34
2023-02-03T15:17:01.396Z,99024.63
2023-02-03T15:19:36.010Z,99027.28
2023-02-03T15:22:28.317Z,99003.09
2023-02-03T15:25:02.705Z,99000.88
2023-02-03T15:27:32.951Z,98991.81
2023-02-03T15:30:16.775Z,98992.16
2023-02-03T15:33:02.860Z,98994.28
2023-02-03T15:35:36.605Z,98999.59
2023-02-03T15:38:15.235Z,98982.00
2023-02-03T15:40:49.344Z,98979.06
2023-02-03T15:43:27.574Z,98975.06
2023-02-03T15:45:58.804Z,98962.50
2023-02-03T15:48:37.459Z,98946.81
2023-02-03T15:51:32.003Z,98945.09
2023-02-03T15:54:06.397Z,98949.75
2023-02-03T15:56:48.789Z,98949.25
2023-02-03T15:59:46.693Z,98948.41
2023-02-03T16:02:31.567Z,98943.53
2023-02-03T16:05:06.377Z,98948.31
2023-02-03T16:07:33.858Z,98947.13
2023-02-03T16:10:01.631Z,98941.41
2023-02-03T16:12:32.305Z,98937.88
2023-02-03T16:15:01.999Z,98941.16
2023-02-03T16:17:33.747Z,98940.25
2023-02-03T16:20:13.447Z,98929.53
2023-02-03T16:22:47.747Z,98928.19
2023-02-03T16:25:32.018Z,98933.28
2023-02-03T16:28:32.419Z,98929.47
2023-02-03T16:31:34.175Z,98931.53
2023-02-03T16:34:32.028Z,98923.88
2023-02-03T16:37:18.482Z,98929.19
2023-02-03T16:40:04.882Z,98901.44
2023-02-03T16:42:59.172Z,98883.41
2023-02-03T16:45:45.212Z,98878.44
2023-02-03T16:48:32.153Z,98879.94
2023-02-03T16:51:10.095Z,98872.69
2023-02-03T16:53:37.579Z,98868.03
2023-02-03T16:56:05.690Z,98861.22
2023-02-03T16:58:33.133Z,98860.53
2023-02-03T17:01:03.890Z,98848.38
2023-02-03T17:03:34.606Z,98839.38
2023-02-03T17:06:06.285Z,98855.50
2023-02-03T17:08:34.367Z,98843.50
2023-02-03T17:11:15.677Z,98846.75
2023-02-03T17:13:43.459Z,98843.06
2023-02-03T17:16:20.584Z,98848.53
2023-02-03T17:18:48.005Z,98844.00
2023-02-03T17:21:24.078Z,98841.41
2023-02-03T17:23:51.624Z,98838.00
2023-02-03T17:26:19.315Z,98836.22
2023-02-03T17:28:46.808Z,98840.31
2023-02-03T17:31:20.564Z,98829.13
2023-02-03T17:33:52.239Z,98818.75
2023-02-03T17:36:21.894Z,98821.34
2023-02-03T17:55:25.531Z,98810.09
2023-02-03T17:57:52.968Z,98796.97
2023-02-03T18:00:20.668Z,98782.72
2023-02-03T18:02:52.543Z,98778.88
2023-02-03T18:05:19.950Z,98774.75
2023-02-03T18:10:15.947Z,98769.91
2023-02-03T18:12:43.360Z,98765.16
2023-02-03T18:15:10.752Z,98770.91
2023-02-03T18:17:38.092Z,98760.16
2023-02-03T18:20:06.233Z,98748.47
2023-02-03T18:22:34.577Z,98754.94
2023-02-03T18:25:01.959Z,98763.13
2023-02-03T18:27:29.413Z,98760.97
2023-02-03T18:29:56.762Z,98775.38
2023-02-03T18:32:24.164Z,98780.19
2023-02-03T18:34:51.680Z,98793.41
2023-02-03T18:37:19.034Z,98788.75
2023-02-03T18:39:47.217Z,98807.41
2023-02-03T18:42:14.945Z,98793.63
2023-02-03T18:44:44.279Z,98782.09
2023-02-03T18:47:11.739Z,98796.75
2023-02-03T18:49:39.666Z,98791.38
2023-02-03T18:52:07.076Z,98796.75
2023-02-03T18:54:34.498Z,98801.94
2023-02-03T18:57:03.086Z,98818.25
2023-02-03T18:59:30.365Z,98817.47
2023-02-03T19:01:57.827Z,98827.28
2023-02-03T19:04:25.301Z,98807.66
2023-02-03T19:06:52.756Z,98814.72
2023-02-03T19:09:22.324Z,98828.56
2023-02-03T19:11:49.847Z,98839.00
2023-02-03T19:14:17.562Z,98841.63
2023-02-03T19:16:45.147Z,98839.84
2023-02-03T19:19:14.167Z,98847.84
2023-02-03T19:21:41.572Z,98841.69
2023-02-03T19:24:09.284Z,98843.41
2023-02-03T19:26:36.845Z,98829.31
2023-02-03T19:29:04.192Z,98833.34
2023-02-03T19:31:31.762Z,98828.34
2023-02-03T19:34:02.358Z,98830.47
2023-02-03T19:36:30.843Z,98825.47
2023-02-03T19:38:58.218Z,98829.69
2023-02-03T19:41:30.791Z,98823.31
2023-02-03T19:43:58.087Z,98821.13
2023-02-03T19:46:27.433Z,98832.47
2023-02-03T19:48:54.775Z,98815.94
2023-02-03T19:51:22.141Z,98809.13
2023-02-03T19:53:49.610Z,98806.81
2023-02-03T19:56:17.050Z,98812.97
2023-02-03T19:58:46.026Z,98815.56
2023-02-03T20:01:13.470Z,98811.34
2023-02-03T20:03:42.707Z,98815.56
2023-02-03T20:06:10.650Z,98819.78
2023-02-03T20:08:38.241Z,98819.09
2023-02-03T20:11:05.867Z,98821.69
2023-02-03T20:13:33.389Z,98821.97
2023-02-03T20:16:01.145Z,98820.88
2023-02-03T20:18:28.562Z,98822.81
2023-02-03T20:20:57.059Z,98826.63
2023-02-03T20:23:24.779Z,98820.63
2023-02-03T20:25:54.722Z,98814.91
2023-02-03T20:28:25.089Z,98817.91
2023-02-03T20:30:56.607Z,98805.91
2023-02-03T20:33:27.854Z,98809.75
2023-02-03T20:35:57.009Z,98811.00
2023-02-03T20:38:24.827Z,98816.44
2023-02-03T20:40:52.237Z,98815.22
2023-02-03T20:43:27.261Z,98817.66
2023-02-03T20:45:55.120Z,98819.84
2023-02-03T20:48:25.450Z,98807.56
2023-02-03T20:50:53.088Z,98821.78
2023-02-03T20:53:26.113Z,98820.13
2023-02-03T20:56:01.574Z,98813.59
2023-02-03T20:58:35.939Z,98810.59
2023-02-03T21:01:14.378Z,98816.03
2023-02-03T21:04:00.519Z,98810.44
2023-02-03T21:06:31.586Z,98800.50
2023-02-03T21:09:19.288Z,98801.75
2023-02-03T21:11:46.724Z,98809.78
2023-02-03T21:14:29.104Z,98799.97
2023-02-03T21:16:56.545Z,98796.28
2023-02-03T21:19:33.720Z,98798.31
2023-02-03T21:22:20.648Z,98805.81
2023-02-03T21:24:52.514Z,98801.19
2023-02-03T21:27:32.476Z,98802.94
2023-02-03T21:30:24.573Z,98802.25
2023-02-03T21:32:51.950Z,98801.00
2023-02-03T21:35:29.783Z,98784.69
2023-02-03T21:38:03.930Z,98772.03
2023-02-03T21:40:34.515Z,98761.00
2023-02-03T21:43:03.271Z,98754.19
2023-02-03T21:45:38.267Z,98739.63
2023-02-03T21:48:32.488Z,98740.31
2023-02-03T21:51:15.413Z,98732.53
2023-02-03T21:53:55.375Z,98725.75
2023-02-03T21:56:42.710Z,98710.38
2023-02-03T21:59:34.869Z,98704.41
2023-02-03T22:02:03.566Z,98703.28
2023-02-03T22:04:31.672Z,98700.72
2023-02-03T22:06:58.890Z,98691.06
2023-02-03T22:09:27.678Z,98692.53
2023-02-03T22:11:55.092Z,98686.41
2023-02-03T22:14:22.481Z,98683.84
2023-02-03T22:16:50.624Z,98683.72
2023-02-03T22:19:17.995Z,98667.34
2023-02-03T22:21:47.688Z,98668.19
2023-02-03T22:24:15.033Z,98668.72
2023-02-03T22:26:42.592Z,98666.00
2023-02-03T22:29:09.940Z,98658.13
2023-02-03T22:31:37.412Z,98649.09
2023-02-03T22:34:04.768Z,98657.56
2023-02-03T22:36:32.215Z,98653.75
2023-02-03T22:38:59.587Z,98642.44
2023-02-03T22:41:27.067Z,98636.88
2023-02-03T22:43:54.379Z,98645.03
2023-02-03T22:46:21.808Z,98639.41
2023-02-03T22:48:49.196Z,98628.81
2023-02-03T22:51:16.522Z,98637.38
2023-02-03T22:53:43.935Z,98651.41
2023-02-03T22:56:11.441Z,98644.47
2023-02-03T22:58:38.819Z,98640.78
2023-02-03T23:01:06.365Z,98626.31
2023-02-03T23:03:33.771Z,98623.31
2023-02-03T23:06:01.214Z,98620.72
2023-02-03T23:08:28.666Z,98615.03
2023-02-03T23:10:56.325Z,98609.31
2023-02-03T23:13:23.887Z,98609.16
2023-02-03T23:15:51.582Z,98606.00
2023-02-03T23:18:18.972Z,98598.13
2023-02-03T23:20:46.422Z,98599.59
2023-02-03T23:23:14.362Z,98595.66
2023-02-03T23:25:41.777Z,98590.47
2023-02-03T23:28:09.261Z,98591.56
2023-02-03T23:30:37.044Z,98605.56
2023-02-03T23:33:04.443Z,98600.22
2023-02-03T23:35:46.737Z,98607.28
2023-02-03T23:38:16.825Z,98620.88
2023-02-03T23:40:44.821Z,98622.19
2023-02-03T23:43:12.402Z,98627.34
2023-02-03T23:45:40.864Z,98626.47
2023-02-03T23:48:08.755Z,98640.19
2023-02-03T23:50:36.290Z,98621.50
2023-02-03T23:53:04.073Z,98644.84
2023-02-03T23:55:31.641Z,98648.66
2023-02-03T23:57:59.175Z,98642.94
